createdAt,value
2022-09-29T00:00:36.082Z,95003.13
2022-09-29T00:03:02.490Z,95003.66
2022-09-29T00:05:28.889Z,95001.03
2022-09-29T00:07:55.187Z,94997.72
2022-09-29T00:10:21.845Z,94998.34
2022-09-29T00:12:48.178Z,95001.59
2022-09-29T00:15:14.579Z,94996.13
2022-09-29T00:17:49.689Z,95001.47
2022-09-29T00:20:27.310Z,95002.00
2022-09-29T00:22:53.612Z,95003.00
2022-09-29T00:25:20.062Z,95002.78
2022-09-29T00:27:46.561Z,94999.63
2022-09-29T00:30:13.017Z,94999.31
2022-09-29T00:32:39.583Z,94998.16
2022-09-29T00:35:08.295Z,95000.78
2022-09-29T00:37:35.152Z,95000.94
2022-09-29T00:40:01.772Z,95004.88
2022-09-29T00:42:28.683Z,95003.13
2022-09-29T00:45:07.062Z,95008.13
2022-09-29T00:47:37.840Z,95003.97
2022-09-29T00:50:30.837Z,95005.84
2022-09-29T00:53:01.425Z,94998.09
2022-09-29T00:55:39.307Z,94998.09
2022-09-29T00:58:12.912Z,95000.50
2022-09-29T01:00:39.648Z,94995.22
2022-09-29T01:03:13.569Z,94980.25
2022-09-29T01:05:45.702Z,94982.56
2022-09-29T01:08:23.007Z,94980.47
2022-09-29T01:10:51.262Z,94979.88
2022-09-29T01:13:19.011Z,94974.72
2022-09-29T01:15:45.468Z,94977.78
2022-09-29T01:18:12.193Z,94982.25
2022-09-29T01:20:52.998Z,94984.34
2022-09-29T01:23:34.644Z,94968.59
2022-09-29T01:26:16.165Z,94970.63
2022-09-29T01:29:20.075Z,94970.91
2022-09-29T01:31:52.540Z,94962.97
2022-09-29T01:34:21.841Z,94960.53
2022-09-29T01:37:06.855Z,94956.53
2022-09-29T01:39:38.305Z,94953.66
2022-09-29T01:42:15.935Z,94954.72
2022-09-29T01:44:42.206Z,94954.97
2022-09-29T01:47:17.085Z,94965.66
2022-09-29T01:49:48.079Z,94969.38
2022-09-29T01:52:19.023Z,94967.31
2022-09-29T01:55:10.373Z,94961.13
2022-09-29T01:57:55.652Z,94959.97
2022-09-29T02:00:23.925Z,94961.69
2022-09-29T02:03:11.204Z,94969.03
2022-09-29T02:05:45.443Z,94966.59
2022-09-29T02:08:38.227Z,94967.47
2022-09-29T02:11:10.025Z,94967.31
2022-09-29T02:13:41.771Z,94965.75
2022-09-29T02:16:15.460Z,94961.34
2022-09-29T02:18:58.435Z,94956.44
2022-09-29T02:21:25.106Z,94952.75
2022-09-29T02:23:52.292Z,94957.66
2022-09-29T02:26:19.300Z,94956.44
2022-09-29T02:28:45.955Z,94953.09
2022-09-29T02:31:12.753Z,94949.38
2022-09-29T02:33:39.294Z,94951.91
2022-09-29T02:36:27.503Z,94947.84
2022-09-29T02:39:00.270Z,94943.75
2022-09-29T02:41:55.660Z,94940.66
2022-09-29T02:44:46.514Z,94944.50
2022-09-29T02:47:45.761Z,94942.06
2022-09-29T02:50:41.489Z,94939.81
2022-09-29T02:53:19.976Z,94932.56
2022-09-29T02:55:57.155Z,94933.25
2022-09-29T02:59:02.568Z,94938.03
2022-09-29T03:01:33.450Z,94941.44
2022-09-29T03:04:04.213Z,94939.69
2022-09-29T03:06:31.146Z,94929.56
2022-09-29T03:08:57.463Z,94934.03
2022-09-29T03:11:23.894Z,94926.16
2022-09-29T03:13:50.206Z,94922.75
2022-09-29T03:16:16.671Z,94921.75
2022-09-29T03:18:44.026Z,94920.34
2022-09-29T03:21:10.331Z,94921.59
2022-09-29T03:23:36.820Z,94929.00
2022-09-29T03:26:03.431Z,94930.16
2022-09-29T03:28:29.784Z,94920.03
2022-09-29T03:30:56.280Z,94919.41
2022-09-29T03:33:22.618Z,94920.94
2022-09-29T03:35:48.980Z,94924.28
2022-09-29T03:38:15.465Z,94920.28
2022-09-29T03:40:41.909Z,94912.72
2022-09-29T03:43:08.238Z,94918.66
2022-09-29T03:45:34.659Z,94917.34
2022-09-29T03:48:01.383Z,94917.59
2022-09-29T03:50:27.706Z,94911.34
2022-09-29T03:52:54.141Z,94921.84
2022-09-29T03:55:20.645Z,94919.50
2022-09-29T03:57:47.273Z,94919.66
2022-09-29T04:00:14.741Z,94918.03
2022-09-29T04:02:41.587Z,94919.84
2022-09-29T04:05:07.973Z,94914.50
2022-09-29T04:07:34.327Z,94918.88
2022-09-29T04:10:00.676Z,94916.97
2022-09-29T04:12:26.984Z,94913.81
2022-09-29T04:14:53.538Z,94912.19
2022-09-29T04:17:20.531Z,94917.34
2022-09-29T04:19:46.852Z,94919.81
2022-09-29T04:22:18.392Z,94924.84
2022-09-29T04:24:45.501Z,94926.47
2022-09-29T04:27:11.995Z,94930.84
2022-09-29T04:29:38.332Z,94935.56
2022-09-29T04:32:05.954Z,94931.28
2022-09-29T04:34:33.106Z,94939.44
2022-09-29T04:36:59.679Z,94933.72
2022-09-29T04:39:26.004Z,94936.88
2022-09-29T04:41:52.344Z,94933.63
2022-09-29T04:44:22.182Z,94940.03
2022-09-29T04:46:51.918Z,94949.13
2022-09-29T04:49:19.235Z,94943.19
2022-09-29T04:51:46.004Z,94951.50
2022-09-29T04:54:12.399Z,94947.81
2022-09-29T04:56:38.724Z,94954.16
2022-09-29T04:59:05.127Z,94954.16
2022-09-29T05:01:31.794Z,94950.44
2022-09-29T05:03:58.233Z,94958.66
2022-09-29T05:06:24.851Z,94950.34
2022-09-29T05:08:51.162Z,94950.28
2022-09-29T05:11:17.524Z,94947.19
2022-09-29T05:13:43.868Z,94946.34
2022-09-29T05:16:10.264Z,94946.81
2022-09-29T05:18:36.692Z,94951.22
2022-09-29T05:21:26.317Z,94952.00
2022-09-29T05:23:51.876Z,94953.63
2022-09-29T05:26:18.370Z,94956.53
2022-09-29T05:28:50.183Z,94962.91
2022-09-29T05:31:18.086Z,94961.63
2022-09-29T05:33:44.832Z,94967.69
2022-09-29T05:36:12.513Z,94965.31
2022-09-29T05:38:39.932Z,94973.28
2022-09-29T05:41:12.423Z,94970.13
2022-09-29T05:43:40.127Z,94979.75
2022-09-29T05:46:08.673Z,94981.34
2022-09-29T05:48:35.355Z,94978.75
2022-09-29T05:51:08.787Z,94976.75
2022-09-29T05:53:35.376Z,94986.63
2022-09-29T05:56:06.407Z,94978.13
2022-09-29T05:58:33.402Z,94986.28
2022-09-29T06:01:00.246Z,94992.09
2022-09-29T06:03:26.768Z,94990.53
2022-09-29T06:05:53.072Z,94989.28
2022-09-29T06:08:19.405Z,94985.97
2022-09-29T06:10:45.715Z,94983.53
2022-09-29T06:13:12.226Z,94978.28
2022-09-29T06:15:38.574Z,94982.66
2022-09-29T06:18:04.951Z,94987.25
2022-09-29T06:20:33.166Z,94983.34
2022-09-29T06:22:59.664Z,94984.28
2022-09-29T06:25:25.961Z,94986.22
2022-09-29T06:27:52.297Z,94989.84
2022-09-29T06:30:18.622Z,94988.94
2022-09-29T06:32:45.340Z,94992.34
2022-09-29T06:35:34.964Z,94988.59
2022-09-29T06:38:02.597Z,94995.75
2022-09-29T06:40:28.919Z,94997.25
2022-09-29T06:42:55.339Z,94987.22
2022-09-29T06:45:22.383Z,94986.91
2022-09-29T06:47:48.872Z,94992.63
2022-09-29T06:50:17.215Z,95002.78
2022-09-29T06:52:53.530Z,94985.97
2022-09-29T06:55:22.303Z,94987.06
2022-09-29T06:57:48.617Z,94982.38
2022-09-29T07:00:15.071Z,94983.84
2022-09-29T07:02:45.603Z,94985.47
2022-09-29T07:05:11.951Z,94985.09
2022-09-29T07:07:38.324Z,94990.41
2022-09-29T07:10:05.161Z,94992.97
2022-09-29T07:12:31.498Z,94992.66
2022-09-29T07:14:57.797Z,94988.78
2022-09-29T07:17:24.107Z,94988.72
2022-09-29T07:19:50.437Z,94987.91
2022-09-29T07:22:16.720Z,94990.28
2022-09-29T07:24:43.104Z,95002.59
2022-09-29T07:27:09.476Z,95003.88
2022-09-29T07:29:35.888Z,94995.66
2022-09-29T07:32:02.262Z,95004.06
2022-09-29T07:34:28.548Z,95003.81
2022-09-29T07:36:54.835Z,95005.91
2022-09-29T07:39:22.421Z,94994.59
2022-09-29T07:41:49.311Z,95005.72
2022-09-29T07:44:15.671Z,95007.44
2022-09-29T07:46:42.210Z,95009.78
2022-09-29T07:49:08.576Z,95021.53
2022-09-29T07:51:34.868Z,95021.06
2022-09-29T07:54:03.759Z,95028.28
2022-09-29T07:56:30.222Z,95028.00
2022-09-29T07:58:56.558Z,95028.22
2022-09-29T08:01:22.983Z,95019.19
2022-09-29T08:03:52.176Z,95032.59
2022-09-29T08:06:19.768Z,95027.97
2022-09-29T08:08:58.375Z,95031.97
2022-09-29T08:11:31.913Z,95032.50
2022-09-29T08:14:00.064Z,95028.94
2022-09-29T08:16:26.641Z,95035.88
2022-09-29T08:18:53.188Z,95044.91
2022-09-29T08:21:19.579Z,95040.69
2022-09-29T08:23:45.965Z,95044.41
2022-09-29T08:26:15.686Z,95048.03
2022-09-29T08:28:43.106Z,95048.66
2022-09-29T08:31:12.095Z,95052.22
2022-09-29T08:33:38.814Z,95055.16
2022-09-29T08:36:14.255Z,95056.69
2022-09-29T08:38:43.176Z,95066.91
2022-09-29T08:41:23.360Z,95067.97
2022-09-29T08:43:53.012Z,95067.00
2022-09-29T08:46:33.440Z,95065.63
2022-09-29T08:49:10.444Z,95066.81
2022-09-29T08:51:43.032Z,95068.34
2022-09-29T08:54:36.045Z,95067.56
2022-09-29T08:57:05.927Z,95066.81
2022-09-29T08:59:32.557Z,95076.19
2022-09-29T09:02:20.553Z,95079.44
2022-09-29T09:04:58.993Z,95079.88
2022-09-29T09:07:32.825Z,95093.94
2022-09-29T09:10:11.472Z,95082.59
2022-09-29T09:12:53.235Z,95082.31
2022-09-29T09:15:43.017Z,95084.41
2022-09-29T09:18:34.469Z,95100.81
2022-09-29T09:21:13.761Z,95096.25
2022-09-29T09:23:55.590Z,95093.81
2022-09-29T09:26:30.906Z,95100.19
2022-09-29T09:29:37.689Z,95092.19
2022-09-29T09:32:09.491Z,95099.25
2022-09-29T09:34:46.404Z,95093.44
2022-09-29T09:37:28.521Z,95095.97
2022-09-29T09:40:16.707Z,95091.63
2022-09-29T09:42:50.173Z,95091.63
2022-09-29T09:45:27.056Z,95095.13
2022-09-29T09:48:06.122Z,95102.66
2022-09-29T09:50:39.817Z,95091.75
2022-09-29T09:53:15.932Z,95104.00
2022-09-29T09:55:43.069Z,95101.22
2022-09-29T09:58:27.971Z,95103.22
2022-09-29T10:01:01.396Z,95096.19
2022-09-29T10:03:31.340Z,95099.91
2022-09-29T10:05:58.427Z,95092.81
2022-09-29T10:08:30.445Z,95098.38
2022-09-29T10:10:59.744Z,95099.78
2022-09-29T10:13:28.582Z,95102.06
2022-09-29T10:16:17.342Z,95104.88
2022-09-29T10:18:46.984Z,95098.81
2022-09-29T10:21:25.400Z,95100.78
2022-09-29T10:23:53.775Z,95102.00
2022-09-29T10:26:27.825Z,95100.78
2022-09-29T10:28:58.268Z,95100.72
2022-09-29T10:31:30.147Z,95104.53
2022-09-29T10:34:16.318Z,95102.63
2022-09-29T10:36:54.455Z,95099.66
2022-09-29T10:39:42.937Z,95096.28
2022-09-29T10:42:35.480Z,95095.53
2022-09-29T10:45:13.880Z,95103.47
2022-09-29T10:47:41.430Z,95099.38
2022-09-29T10:50:37.610Z,95101.00
2022-09-29T10:53:22.988Z,95091.28
2022-09-29T10:55:54.880Z,95102.16
2022-09-29T10:58:45.551Z,95093.38
2022-09-29T11:01:18.734Z,95096.53
2022-09-29T11:03:50.032Z,95097.53
2022-09-29T11:06:16.982Z,95092.41
2022-09-29T11:09:48.284Z,95095.50
2022-09-29T11:12:39.482Z,95109.25
2022-09-29T11:15:25.094Z,95106.09
2022-09-29T11:17:52.772Z,95101.63
2022-09-29T11:20:22.933Z,95111.59
2022-09-29T11:23:08.476Z,95110.22
2022-09-29T11:25:57.336Z,95108.84
2022-09-29T11:28:27.023Z,95104.81
2022-09-29T11:31:09.185Z,95107.06
2022-09-29T11:33:41.729Z,95108.53
2022-09-29T11:36:18.563Z,95103.72
2022-09-29T11:39:08.539Z,95095.34
2022-09-29T11:41:59.047Z,95106.44
2022-09-29T11:45:04.437Z,95115.34
2022-09-29T11:47:46.881Z,95104.13
2022-09-29T11:50:46.993Z,95098.56
2022-09-29T11:53:31.457Z,95099.81
2022-09-29T11:56:19.405Z,95099.38
2022-09-29T11:59:01.993Z,95096.59
2022-09-29T12:01:37.212Z,95099.50
2022-09-29T12:04:28.036Z,95095.81
2022-09-29T12:07:20.024Z,95093.84
2022-09-29T12:10:08.213Z,95093.06
2022-09-29T12:12:55.304Z,95092.38
2022-09-29T12:15:41.124Z,95086.81
2022-09-29T12:18:24.727Z,95081.44
2022-09-29T12:20:54.538Z,95082.09
2022-09-29T12:23:26.045Z,95076.47
2022-09-29T12:26:09.673Z,95085.63
2022-09-29T12:28:50.868Z,95083.56
2022-09-29T12:31:25.831Z,95077.53
2022-09-29T12:33:58.666Z,95076.13
2022-09-29T12:36:46.707Z,95082.44
2022-09-29T12:39:23.806Z,95079.13
2022-09-29T12:42:14.162Z,95075.38
2022-09-29T12:44:53.671Z,95080.59
2022-09-29T12:47:38.462Z,95077.97
2022-09-29T12:50:16.866Z,95085.06
2022-09-29T12:53:09.548Z,95081.84
2022-09-29T12:56:06.662Z,95077.72
2022-09-29T12:58:43.062Z,95082.81
2022-09-29T13:01:29.794Z,95083.47
2022-09-29T13:04:50.674Z,95078.63
2022-09-29T13:07:19.917Z,95080.03
2022-09-29T13:10:09.885Z,95078.63
2022-09-29T13:12:38.874Z,95075.03
2022-09-29T13:15:27.034Z,95073.78
2022-09-29T13:18:11.783Z,95078.28
2022-09-29T13:20:43.594Z,95077.84
2022-09-29T13:23:25.025Z,95078.09
2022-09-29T13:26:19.760Z,95080.88
2022-09-29T13:28:49.715Z,95088.53
2022-09-29T13:31:20.586Z,95084.25
2022-09-29T13:33:50.378Z,95095.44
2022-09-29T13:36:29.734Z,95098.09
2022-09-29T13:38:59.894Z,95097.66
2022-09-29T13:41:29.947Z,95098.91
2022-09-29T13:43:56.181Z,95103.03
2022-09-29T13:46:31.563Z,95109.13
2022-09-29T13:49:21.220Z,95107.50
2022-09-29T13:51:49.693Z,95106.88
2022-09-29T13:54:27.846Z,95100.59
2022-09-29T13:57:00.247Z,95096.56
2022-09-29T13:59:28.818Z,95101.84
2022-09-29T14:01:56.125Z,95104.69
2022-09-29T14:04:40.917Z,95109.19
2022-09-29T14:07:08.087Z,95109.97
2022-09-29T14:09:39.544Z,95103.69
2022-09-29T14:12:25.092Z,95111.00
2022-09-29T14:14:58.525Z,95114.66
2022-09-29T14:17:34.036Z,95111.00
2022-09-29T14:20:14.725Z,95108.78
2022-09-29T14:22:45.410Z,95117.72
2022-09-29T14:25:11.742Z,95110.81
2022-09-29T14:28:03.752Z,95110.41
2022-09-29T14:30:33.221Z,95113.84
2022-09-29T14:33:10.890Z,95117.72
2022-09-29T14:35:39.685Z,95124.00
2022-09-29T14:38:16.425Z,95126.66
2022-09-29T14:41:05.644Z,95123.41
2022-09-29T14:43:52.993Z,95128.44
2022-09-29T14:46:56.205Z,95126.00
2022-09-29T14:50:00.113Z,95122.97
2022-09-29T14:52:29.051Z,95124.75
2022-09-29T14:58:14.860Z,95130.63
2022-09-29T15:00:59.094Z,95135.31
2022-09-29T15:03:37.391Z,95129.88
2022-09-29T15:06:19.193Z,95133.84
2022-09-29T15:09:16.194Z,95131.38
2022-09-29T15:11:46.372Z,95133.84
2022-09-29T15:14:27.913Z,95149.28
2022-09-29T15:17:14.644Z,95142.19
2022-09-29T15:19:59.157Z,95138.31
2022-09-29T15:22:34.595Z,95132.66
2022-09-29T15:25:19.569Z,95141.19
2022-09-29T15:27:49.988Z,95141.81
2022-09-29T15:30:19.684Z,95145.63
2022-09-29T15:32:48.356Z,95148.06
2022-09-29T15:35:21.158Z,95150.28
2022-09-29T15:37:50.145Z,95152.75
2022-09-29T15:40:19.099Z,95154.56
2022-09-29T15:42:46.679Z,95148.41
2022-09-29T15:45:18.179Z,95147.19
2022-09-29T15:47:44.490Z,95154.25
2022-09-29T15:50:21.178Z,95155.88
2022-09-29T15:52:48.894Z,95164.34
2022-09-29T15:55:21.305Z,95165.97
2022-09-29T15:57:51.025Z,95167.78
2022-09-29T16:00:23.618Z,95166.94
2022-09-29T16:03:02.111Z,95173.84
2022-09-29T16:05:33.794Z,95180.31
2022-09-29T16:08:06.430Z,95190.50
2022-09-29T16:10:53.215Z,95192.13
2022-09-29T16:13:25.867Z,95190.03
2022-09-29T16:15:56.639Z,95191.66
2022-09-29T16:18:43.305Z,95192.03
2022-09-29T16:21:13.656Z,95194.47
2022-09-29T16:23:49.130Z,95198.09
2022-09-29T16:26:33.914Z,95198.25
2022-09-29T16:29:09.297Z,95200.91
2022-09-29T16:31:40.936Z,95201.88
2022-09-29T16:34:22.923Z,95199.28
2022-09-29T16:37:14.489Z,95210.22
2022-09-29T16:39:44.413Z,95211.78
2022-09-29T16:42:21.866Z,95208.75
2022-09-29T16:44:51.976Z,95205.69
2022-09-29T16:47:24.183Z,95216.63
2022-09-29T16:49:56.015Z,95221.50
2022-09-29T16:52:44.604Z,95217.81
2022-09-29T16:55:14.068Z,95224.91
2022-09-29T16:58:01.250Z,95221.66
2022-09-29T17:00:28.271Z,95223.03
2022-09-29T17:02:57.488Z,95234.81
2022-09-29T17:05:25.246Z,95232.81
2022-09-29T17:08:00.180Z,95237.72
2022-09-29T17:10:26.679Z,95242.56
2022-09-29T17:12:53.949Z,95242.50
2022-09-29T17:15:20.396Z,95248.00
2022-09-29T17:17:48.739Z,95246.38
2022-09-29T17:20:28.956Z,95252.84
2022-09-29T17:22:56.313Z,95250.41
2022-09-29T17:25:23.149Z,95265.97
2022-09-29T17:28:08.014Z,95264.16
2022-09-29T17:30:34.318Z,95278.31
2022-09-29T17:33:00.626Z,95273.44
2022-09-29T17:37:56.720Z,95266.53
2022-09-29T17:40:34.735Z,95270.16
2022-09-29T17:43:02.233Z,95279.72
2022-09-29T17:45:30.429Z,95287.00
2022-09-29T17:47:56.827Z,95286.56
2022-09-29T17:50:32.706Z,95290.31
2022-09-29T17:52:59.561Z,95288.13
2022-09-29T17:55:28.850Z,95287.94
2022-09-29T17:57:55.180Z,95288.41
2022-09-29T18:00:25.609Z,95295.31
2022-09-29T18:02:56.765Z,95297.13
2022-09-29T18:05:24.908Z,95296.31
2022-09-29T18:07:52.479Z,95299.94
2022-09-29T18:10:29.551Z,95304.59
2022-09-29T18:12:56.532Z,95301.16
2022-09-29T18:15:23.731Z,95307.50
2022-09-29T18:17:55.751Z,95311.34
2022-09-29T18:20:23.568Z,95306.44
2022-09-29T18:22:50.005Z,95309.28
2022-09-29T18:25:18.469Z,95315.25
2022-09-29T18:27:49.409Z,95316.44
2022-09-29T18:30:20.338Z,95315.19
2022-09-29T18:32:49.638Z,95314.81
2022-09-29T18:35:22.319Z,95316.91
2022-09-29T18:37:48.768Z,95324.63
2022-09-29T18:40:15.366Z,95325.72
2022-09-29T18:42:46.785Z,95324.06
2022-09-29T18:45:20.810Z,95329.59
2022-09-29T18:47:48.108Z,95322.44
2022-09-29T18:50:19.201Z,95328.16
2022-09-29T18:52:47.560Z,95337.88
2022-09-29T18:55:17.836Z,95338.56
2022-09-29T18:57:45.180Z,95348.22
2022-09-29T19:00:14.440Z,95339.75
2022-09-29T19:02:45.675Z,95343.38
2022-09-29T19:05:18.723Z,95351.66
2022-09-29T19:07:45.975Z,95354.91
2022-09-29T19:10:15.331Z,95359.47
2022-09-29T19:12:45.633Z,95346.94
2022-09-29T19:18:08.000Z,95358.31
2022-09-29T19:20:35.612Z,95358.75
2022-09-29T19:23:05.516Z,95359.00
2022-09-29T19:25:35.328Z,95356.84
2022-09-29T19:28:06.315Z,95366.81
2022-09-29T19:30:35.751Z,95361.41
2022-09-29T19:33:02.552Z,95370.09
2022-09-29T19:35:29.188Z,95374.56
2022-09-29T19:37:58.948Z,95381.25
2022-09-29T19:40:29.911Z,95382.53
2022-09-29T19:42:58.478Z,95376.53
2022-09-29T19:45:25.517Z,95383.34
2022-09-29T19:47:54.347Z,95378.53
2022-09-29T19:50:39.683Z,95384.63
2022-09-29T19:53:06.139Z,95385.63
2022-09-29T19:55:32.551Z,95386.06
2022-09-29T19:57:59.382Z,95383.25
2022-09-29T20:00:25.773Z,95386.44
2022-09-29T20:02:52.623Z,95386.59
2022-09-29T20:05:19.059Z,95395.03
2022-09-29T20:07:45.684Z,95391.78
2022-09-29T20:10:13.977Z,95399.41
2022-09-29T20:12:42.258Z,95392.84
2022-09-29T20:15:11.745Z,95400.75
2022-09-29T20:17:40.040Z,95396.50
2022-09-29T20:20:07.989Z,95403.38
2022-09-29T20:22:36.329Z,95398.13
2022-09-29T20:25:04.084Z,95399.50
2022-09-29T20:27:31.013Z,95400.13
2022-09-29T20:29:57.373Z,95404.03
2022-09-29T20:32:23.728Z,95401.75
2022-09-29T20:34:50.023Z,95404.56
2022-09-29T20:37:16.479Z,95413.13
2022-09-29T20:39:42.826Z,95416.75
2022-09-29T20:42:09.385Z,95413.81
2022-09-29T20:44:35.941Z,95424.34
2022-09-29T20:47:02.336Z,95421.19
2022-09-29T20:49:28.898Z,95424.44
2022-09-29T20:51:55.299Z,95419.91
2022-09-29T20:54:21.740Z,95434.19
2022-09-29T20:56:50.710Z,95432.72
2022-09-29T20:59:18.949Z,95437.59
2022-09-29T21:01:46.180Z,95432.53
2022-09-29T21:04:18.893Z,95431.72
2022-09-29T21:06:48.850Z,95439.69
2022-09-29T21:09:18.459Z,95443.94
2022-09-29T21:11:46.963Z,95457.09
2022-09-29T21:14:18.249Z,95453.31
2022-09-29T21:16:48.461Z,95448.56
2022-09-29T21:19:14.960Z,95447.94
2022-09-29T21:21:41.965Z,95457.47
2022-09-29T21:24:08.956Z,95459.09
2022-09-29T21:26:35.732Z,95452.91
2022-09-29T21:29:03.304Z,95460.78
2022-09-29T21:31:32.408Z,95459.78
2022-09-29T21:34:07.025Z,95465.78
2022-09-29T21:36:35.542Z,95471.38
2022-09-29T21:39:07.579Z,95476.00
2022-09-29T21:41:38.435Z,95468.16
2022-09-29T21:44:11.300Z,95476.16
2022-09-29T21:46:38.054Z,95469.41
2022-09-29T21:49:08.482Z,95472.03
2022-09-29T21:51:46.996Z,95476.91
2022-09-29T21:54:18.950Z,95480.03
2022-09-29T21:56:46.735Z,95480.22
2022-09-29T21:59:15.392Z,95481.38
2022-09-29T22:01:42.294Z,95480.03
2022-09-29T22:04:10.491Z,95481.03
2022-09-29T22:06:38.416Z,95491.72
2022-09-29T22:09:07.282Z,95492.41
2022-09-29T22:11:36.297Z,95496.81
2022-09-29T22:14:02.967Z,95496.81
2022-09-29T22:16:32.022Z,95493.38
2022-09-29T22:19:22.083Z,95501.91
2022-09-29T22:21:46.548Z,95493.69
2022-09-29T22:24:12.892Z,95497.47
2022-09-29T22:26:40.383Z,95493.56
2022-09-29T22:29:07.396Z,95491.84
2022-09-29T22:31:34.360Z,95495.94
2022-09-29T22:34:02.674Z,95488.94
2022-09-29T22:36:32.856Z,95491.84
2022-09-29T22:39:01.612Z,95494.44
2022-09-29T22:41:28.189Z,95486.16
2022-09-29T22:43:56.160Z,95482.38
2022-09-29T22:46:24.163Z,95493.47
2022-09-29T22:48:50.967Z,95484.72
2022-09-29T22:51:18.243Z,95497.41
2022-09-29T22:53:44.536Z,95489.31
2022-09-29T22:56:22.345Z,95496.06
2022-09-29T22:58:49.682Z,95497.69
2022-09-29T23:01:18.116Z,95489.78
2022-09-29T23:03:45.308Z,95495.59
2022-09-29T23:06:12.613Z,95490.78
2022-09-29T23:08:39.242Z,95499.75
2022-09-29T23:11:07.727Z,95501.44
2022-09-29T23:13:39.925Z,95503.00
2022-09-29T23:16:12.049Z,95500.03
2022-09-29T23:18:44.095Z,95501.22
2022-09-29T23:21:13.196Z,95493.16
2022-09-29T23:23:39.548Z,95490.38
2022-09-29T23:26:06.008Z,95491.16
2022-09-29T23:28:32.339Z,95489.84
2022-09-29T23:31:06.324Z,95487.38
2022-09-29T23:33:33.251Z,95479.31
2022-09-29T23:36:07.182Z,95491.84
2022-09-29T23:38:52.237Z,95492.22
2022-09-29T23:41:20.461Z,95478.69
2022-09-29T23:43:46.780Z,95497.75
2022-09-29T23:46:13.444Z,95498.41
2022-09-29T23:48:39.777Z,95505.59
2022-09-29T23:51:07.824Z,95498.34
2022-09-29T23:53:34.567Z,95500.63
2022-09-29T23:56:01.144Z,95501.63
2022-09-29T23:58:27.476Z,95500.78
